createdAt,value
2018-09-16T00:00:11.847Z,999.31
2018-09-16T00:01:11.848Z,999.31
2018-09-16T00:02:11.850Z,999.28
2018-09-16T00:03:11.839Z,999.32
2018-09-16T00:04:11.838Z,999.32
2018-09-16T00:05:11.838Z,999.3
2018-09-16T00:06:11.836Z,999.29
2018-09-16T00:07:11.829Z,999.31
2018-09-16T00:08:11.829Z,999.32
2018-09-16T00:09:11.844Z,999.3
2018-09-16T00:10:11.825Z,999.25
2018-09-16T00:11:11.823Z,999.27
2018-09-16T00:12:11.820Z,999.26
2018-09-16T00:13:11.819Z,999.25
2018-09-16T00:14:11.818Z,999.26
2018-09-16T00:15:11.830Z,999.27
2018-09-16T00:16:11.811Z,999.24
2018-09-16T00:17:11.812Z,999.28
2018-09-16T00:18:11.809Z,999.3
2018-09-16T00:19:11.805Z,999.25
2018-09-16T00:20:11.805Z,999.28
2018-09-16T00:21:11.801Z,999.28
2018-09-16T00:22:11.797Z,999.29
2018-09-16T00:23:11.796Z,999.25
2018-09-16T00:24:11.806Z,999.27
2018-09-16T00:25:11.794Z,999.25
2018-09-16T00:26:11.790Z,999.24
2018-09-16T00:27:11.789Z,999.21
2018-09-16T00:28:11.785Z,999.25
2018-09-16T00:29:11.779Z,999.23
2018-09-16T00:30:11.781Z,999.2
2018-09-16T00:31:11.776Z,999.19
2018-09-16T00:32:11.776Z,999.25
2018-09-16T00:33:16.731Z,999.22
2018-09-16T00:34:11.769Z,999.25
2018-09-16T00:35:11.767Z,999.26
2018-09-16T00:36:11.764Z,999.26
2018-09-16T00:37:11.762Z,999.29
2018-09-16T00:38:11.761Z,999.27
2018-09-16T00:39:11.761Z,999.24
2018-09-16T00:40:11.756Z,999.23
2018-09-16T00:41:11.764Z,999.27
2018-09-16T00:42:11.762Z,999.27
2018-09-16T00:43:11.759Z,999.24
2018-09-16T00:44:11.747Z,999.25
2018-09-16T00:45:11.744Z,999.24
2018-09-16T00:46:11.743Z,999.22
2018-09-16T00:47:11.745Z,999.25
2018-09-16T00:48:11.745Z,999.24
2018-09-16T00:49:11.745Z,999.19
2018-09-16T00:50:11.745Z,999.18
2018-09-16T00:51:11.733Z,999.14
2018-09-16T00:52:11.745Z,999.17
2018-09-16T00:53:11.725Z,999.13
2018-09-16T00:54:11.749Z,999.15
2018-09-16T00:55:11.718Z,999.15
2018-09-16T00:56:11.717Z,999.13
2018-09-16T00:57:11.716Z,999.09
2018-09-16T00:58:11.709Z,999.07
2018-09-16T00:59:11.710Z,999.06
2018-09-16T01:00:11.708Z,999.05
2018-09-16T01:01:11.712Z,999.04
2018-09-16T01:02:11.700Z,999.04
2018-09-16T01:03:11.699Z,998.99
2018-09-16T01:04:11.698Z,999
2018-09-16T01:05:11.691Z,998.98
2018-09-16T01:06:11.693Z,998.98
2018-09-16T01:07:11.689Z,998.98
2018-09-16T01:08:11.685Z,998.93
2018-09-16T01:09:11.684Z,998.93
2018-09-16T01:10:11.685Z,998.93
2018-09-16T01:11:11.682Z,998.88
2018-09-16T01:12:11.675Z,998.88
2018-09-16T01:13:11.669Z,998.83
2018-09-16T01:14:11.665Z,998.82
2018-09-16T01:15:11.670Z,998.76
2018-09-16T01:16:11.659Z,998.77
2018-09-16T01:17:11.658Z,998.76
2018-09-16T01:18:11.655Z,998.76
2018-09-16T01:19:11.654Z,998.81
2018-09-16T01:20:11.655Z,998.78
2018-09-16T01:21:11.647Z,998.76
2018-09-16T01:22:11.771Z,998.75
2018-09-16T01:23:11.644Z,998.77
2018-09-16T01:24:11.640Z,998.75
2018-09-16T01:25:11.641Z,998.72
2018-09-16T01:26:11.639Z,998.74
2018-09-16T01:27:11.628Z,998.74
2018-09-16T01:28:11.635Z,998.73
2018-09-16T01:29:11.625Z,998.74
2018-09-16T01:30:11.630Z,998.7
2018-09-16T01:31:11.620Z,998.72
2018-09-16T01:32:11.625Z,998.68
2018-09-16T01:33:11.614Z,998.69
2018-09-16T01:34:11.636Z,998.72
2018-09-16T01:35:11.612Z,998.71
2018-09-16T01:36:11.608Z,998.67
2018-09-16T01:37:11.605Z,998.71
2018-09-16T01:38:11.600Z,998.69
2018-09-16T01:39:11.597Z,998.72
2018-09-16T01:40:11.600Z,998.74
2018-09-16T01:41:11.610Z,998.72
2018-09-16T01:42:11.593Z,998.73
2018-09-16T01:43:11.596Z,998.72
2018-09-16T01:44:11.596Z,998.74
2018-09-16T01:45:11.582Z,998.69
2018-09-16T01:46:11.581Z,998.7
2018-09-16T01:47:11.591Z,998.65
2018-09-16T01:48:11.575Z,998.67
2018-09-16T01:49:11.569Z,998.65
2018-09-16T01:50:11.571Z,998.64
2018-09-16T01:51:11.569Z,998.63
2018-09-16T01:52:11.563Z,998.62
2018-09-16T01:53:11.561Z,998.61
2018-09-16T01:54:11.558Z,998.64
2018-09-16T01:55:11.554Z,998.6
2018-09-16T01:56:11.562Z,998.58
2018-09-16T01:57:11.557Z,998.58
2018-09-16T01:58:11.591Z,998.55
2018-09-16T01:59:11.543Z,998.58
2018-09-16T02:00:11.543Z,998.56
2018-09-16T02:01:11.545Z,998.58
2018-09-16T02:02:11.534Z,998.54
2018-09-16T02:03:11.534Z,998.53
2018-09-16T02:04:11.528Z,998.56
2018-09-16T02:05:11.526Z,998.57
2018-09-16T02:06:11.524Z,998.51
2018-09-16T02:07:11.519Z,998.49
2018-09-16T02:08:11.519Z,998.51
2018-09-16T02:09:11.514Z,998.48
2018-09-16T02:10:11.509Z,998.48
2018-09-16T02:11:11.506Z,998.43
2018-09-16T02:12:11.506Z,998.46
2018-09-16T02:13:11.502Z,998.45
2018-09-16T02:14:11.518Z,998.42
2018-09-16T02:15:11.502Z,998.44
2018-09-16T02:16:11.491Z,998.42
2018-09-16T02:17:11.489Z,998.42
2018-09-16T02:18:11.484Z,998.41
2018-09-16T02:19:11.482Z,998.38
2018-09-16T02:20:11.480Z,998.38
2018-09-16T02:21:11.474Z,998.35
2018-09-16T02:22:11.472Z,998.33
2018-09-16T02:23:11.474Z,998.32
2018-09-16T02:24:11.469Z,998.34
2018-09-16T02:25:11.467Z,998.32
2018-09-16T02:26:11.460Z,998.3
2018-09-16T02:27:11.461Z,998.31
2018-09-16T02:28:11.455Z,998.28
2018-09-16T02:29:11.455Z,998.28
2018-09-16T02:30:11.451Z,998.27
2018-09-16T02:31:11.449Z,998.27
2018-09-16T02:32:11.440Z,998.28
2018-09-16T02:33:11.439Z,998.32
2018-09-16T02:34:12.489Z,998.29
2018-09-16T02:35:11.438Z,998.33
2018-09-16T02:36:11.433Z,998.29
2018-09-16T02:37:11.439Z,998.3
2018-09-16T02:38:11.433Z,998.28
2018-09-16T02:39:11.424Z,998.25
2018-09-16T02:40:11.436Z,998.26
2018-09-16T02:41:11.416Z,998.28
2018-09-16T02:42:11.414Z,998.31
2018-09-16T02:43:11.470Z,998.32
2018-09-16T02:44:11.407Z,998.25
2018-09-16T02:45:11.424Z,998.27
2018-09-16T02:46:11.410Z,998.3
2018-09-16T02:47:11.397Z,998.32
2018-09-16T02:48:11.394Z,998.26
2018-09-16T02:49:11.391Z,998.35
2018-09-16T02:50:11.392Z,998.31
2018-09-16T02:51:11.398Z,998.27
2018-09-16T02:52:11.403Z,998.3
2018-09-16T02:53:11.382Z,998.31
2018-09-16T02:54:11.382Z,998.27
2018-09-16T02:55:11.385Z,998.28
2018-09-16T02:56:11.390Z,998.24
2018-09-16T02:57:11.370Z,998.23
2018-09-16T02:58:11.365Z,998.22
2018-09-16T02:59:11.362Z,998.19
2018-09-16T03:00:11.358Z,998.2
2018-09-16T03:01:11.355Z,998.22
2018-09-16T03:02:11.357Z,998.17
2018-09-16T03:03:11.350Z,998.23
2018-09-16T03:04:11.345Z,998.2
2018-09-16T03:05:11.342Z,998.2
2018-09-16T03:06:11.339Z,998.22
2018-09-16T03:07:11.352Z,998.24
2018-09-16T03:08:11.340Z,998.23
2018-09-16T03:09:11.330Z,998.24
2018-09-16T03:10:11.334Z,998.23
2018-09-16T03:11:11.322Z,998.23
2018-09-16T03:12:11.320Z,998.28
2018-09-16T03:13:11.315Z,998.25
2018-09-16T03:14:11.315Z,998.27
2018-09-16T03:15:11.309Z,998.21
2018-09-16T03:16:11.308Z,998.24
2018-09-16T03:17:11.311Z,998.23
2018-09-16T03:18:11.298Z,998.21
2018-09-16T03:19:11.301Z,998.18
2018-09-16T03:20:11.293Z,998.16
2018-09-16T03:21:11.303Z,998.17
2018-09-16T03:22:11.295Z,998.16
2018-09-16T03:23:11.290Z,998.12
2018-09-16T03:24:11.281Z,998.12
2018-09-16T03:25:11.277Z,998.1
2018-09-16T03:26:11.277Z,998.16
2018-09-16T03:27:11.269Z,998.12
2018-09-16T03:28:11.274Z,998.1
2018-09-16T03:29:11.263Z,998.09
2018-09-16T03:30:11.264Z,998.13
2018-09-16T03:31:11.255Z,998.1
2018-09-16T03:32:11.253Z,998.14
2018-09-16T03:33:11.250Z,998.15
2018-09-16T03:34:11.252Z,998.1
2018-09-16T03:35:11.244Z,998.14
2018-09-16T03:36:11.239Z,998.11
2018-09-16T03:37:11.242Z,998.13
2018-09-16T03:38:11.237Z,998.12
2018-09-16T03:39:11.237Z,998.1
2018-09-16T03:40:11.227Z,998.13
2018-09-16T03:41:11.224Z,998.11
2018-09-16T03:42:11.235Z,998.09
2018-09-16T03:43:11.216Z,998.09
2018-09-16T03:44:11.214Z,998.06
2018-09-16T03:45:11.212Z,998.06
2018-09-16T03:46:11.207Z,998.08
2018-09-16T03:47:11.203Z,998.09
2018-09-16T03:48:11.200Z,998.05
2018-09-16T03:49:11.205Z,998.07
2018-09-16T03:50:11.193Z,998.09
2018-09-16T03:51:11.190Z,998.04
2018-09-16T03:52:11.192Z,998.05
2018-09-16T03:53:11.181Z,998.06
2018-09-16T03:54:11.179Z,998.1
2018-09-16T03:55:11.204Z,998.15
2018-09-16T03:56:11.173Z,998.09
2018-09-16T03:57:11.168Z,998.09
2018-09-16T03:58:11.167Z,998.14
2018-09-16T03:59:11.165Z,998.1
2018-09-16T04:00:11.162Z,998.09
2018-09-16T04:01:11.162Z,998.11
2018-09-16T04:02:11.156Z,998.09
2018-09-16T04:03:11.149Z,998.11
2018-09-16T04:04:11.145Z,998.12
2018-09-16T04:05:11.143Z,998.12
2018-09-16T04:06:11.141Z,998.12
2018-09-16T04:07:11.141Z,998.08
2018-09-16T04:08:11.133Z,998.1
2018-09-16T04:09:11.130Z,998.09
2018-09-16T04:10:11.130Z,998.07
2018-09-16T04:11:11.123Z,998.03
2018-09-16T04:12:11.124Z,998.02
2018-09-16T04:13:11.114Z,998.03
2018-09-16T04:14:11.112Z,998.02
2018-09-16T04:15:11.110Z,998.02
2018-09-16T04:16:11.104Z,998.04
2018-09-16T04:17:11.104Z,998.09
2018-09-16T04:18:11.099Z,998.14
2018-09-16T04:19:11.093Z,998.12
2018-09-16T04:20:11.091Z,998.13
2018-09-16T04:21:11.230Z,998.12
2018-09-16T04:22:11.084Z,998.13
2018-09-16T04:23:11.080Z,998.15
2018-09-16T04:24:11.075Z,998.15
2018-09-16T04:25:11.108Z,998.15
2018-09-16T04:26:11.069Z,998.13
2018-09-16T04:27:11.066Z,998.17
2018-09-16T04:28:11.065Z,998.2
2018-09-16T04:29:11.058Z,998.21
2018-09-16T04:30:11.053Z,998.18
2018-09-16T04:31:11.048Z,998.19
2018-09-16T04:32:11.048Z,998.18
2018-09-16T04:33:11.044Z,998.18
2018-09-16T04:34:11.037Z,998.13
2018-09-16T04:35:11.038Z,998.11
2018-09-16T04:36:11.032Z,998.12
2018-09-16T04:37:11.030Z,998.13
2018-09-16T04:38:11.026Z,998.11
2018-09-16T04:39:11.021Z,998.09
2018-09-16T04:40:11.018Z,998.1
2018-09-16T04:41:11.028Z,998.15
2018-09-16T04:42:11.009Z,998.07
2018-09-16T04:43:11.006Z,998.12
2018-09-16T04:44:11.003Z,998.15
2018-09-16T04:45:11.005Z,998.17
2018-09-16T04:46:10.999Z,998.18
2018-09-16T04:47:10.991Z,998.18
2018-09-16T04:48:10.985Z,998.25
2018-09-16T04:49:10.992Z,998.26
2018-09-16T04:50:10.979Z,998.26
2018-09-16T04:51:10.978Z,998.3
2018-09-16T04:52:10.970Z,998.3
2018-09-16T04:53:10.970Z,998.3
2018-09-16T04:54:10.965Z,998.31
2018-09-16T04:55:10.960Z,998.31
2018-09-16T04:56:10.961Z,998.31
2018-09-16T04:57:10.953Z,998.34
2018-09-16T04:58:10.951Z,998.3
2018-09-16T04:59:10.946Z,998.36
2018-09-16T05:00:10.941Z,998.36
2018-09-16T05:01:10.972Z,998.34
2018-09-16T05:02:10.935Z,998.38
2018-09-16T05:03:10.936Z,998.34
2018-09-16T05:04:10.925Z,998.3
2018-09-16T05:05:12.675Z,998.35
2018-09-16T05:06:10.926Z,998.32
2018-09-16T05:07:10.916Z,998.27
2018-09-16T05:08:10.918Z,998.3
2018-09-16T05:09:10.920Z,998.27
2018-09-16T05:10:10.916Z,998.27
2018-09-16T05:11:10.918Z,998.3
2018-09-16T05:12:10.899Z,998.29
2018-09-16T05:13:10.895Z,998.25
2018-09-16T05:14:10.892Z,998.26
2018-09-16T05:15:10.953Z,998.23
2018-09-16T05:16:10.887Z,998.23
2018-09-16T05:17:10.879Z,998.2
2018-09-16T05:18:10.878Z,998.16
2018-09-16T05:19:10.876Z,998.2
2018-09-16T05:20:10.869Z,998.2
2018-09-16T05:21:10.868Z,998.22
2018-09-16T05:22:10.862Z,998.2
2018-09-16T05:23:10.864Z,998.22
2018-09-16T05:24:10.862Z,998.21
2018-09-16T05:25:10.863Z,998.18
2018-09-16T05:26:10.850Z,998.17
2018-09-16T05:27:10.844Z,998.15
2018-09-16T05:28:10.840Z,998.13
2018-09-16T05:29:10.848Z,998.13
2018-09-16T05:30:10.834Z,998.1
2018-09-16T05:31:10.830Z,998.15
2018-09-16T05:32:10.826Z,998.16
2018-09-16T05:33:10.821Z,998.1
2018-09-16T05:34:10.820Z,998.12
2018-09-16T05:35:10.817Z,998.16
2018-09-16T05:36:10.812Z,998.11
2018-09-16T05:37:10.811Z,998.12
2018-09-16T05:38:10.806Z,998.09
2018-09-16T05:39:10.803Z,998.11
2018-09-16T05:40:10.797Z,998.1
2018-09-16T05:41:10.796Z,998.07
2018-09-16T05:42:10.791Z,998.08
2018-09-16T05:43:10.792Z,998.03
2018-09-16T05:44:10.786Z,998.03
2018-09-16T05:45:10.782Z,998
2018-09-16T05:46:10.777Z,997.99
2018-09-16T05:47:10.775Z,997.99
2018-09-16T05:48:10.770Z,997.98
2018-09-16T05:49:10.766Z,997.99
2018-09-16T05:50:10.765Z,997.99
2018-09-16T05:51:10.759Z,998.02
2018-09-16T05:52:10.757Z,998.03
2018-09-16T05:53:10.894Z,998.03
2018-09-16T05:54:10.751Z,998.02
2018-09-16T05:55:10.824Z,998.03
2018-09-16T05:56:10.744Z,998.01
2018-09-16T05:57:10.747Z,997.97
2018-09-16T05:58:10.748Z,997.99
2018-09-16T05:59:10.758Z,997.99
2018-09-16T06:00:10.737Z,997.99
2018-09-16T06:01:10.733Z,997.98
2018-09-16T06:02:10.726Z,998.03
2018-09-16T06:03:10.730Z,998.1
2018-09-16T06:04:10.723Z,998.07
2018-09-16T06:05:10.766Z,998.07
2018-09-16T06:06:10.718Z,998.08
2018-09-16T06:07:10.712Z,998.1
2018-09-16T06:08:10.710Z,998.08
2018-09-16T06:09:10.707Z,998.08
2018-09-16T06:10:10.731Z,998.12
2018-09-16T06:11:10.699Z,998.11
2018-09-16T06:12:10.696Z,998.1
2018-09-16T06:13:10.693Z,998.1
2018-09-16T06:14:10.693Z,998.11
2018-09-16T06:15:10.813Z,998.15
2018-09-16T06:16:10.723Z,998.12
2018-09-16T06:17:10.695Z,998.09
2018-09-16T06:18:10.683Z,998.07
2018-09-16T06:19:10.677Z,998.06
2018-09-16T06:20:10.710Z,998.04
2018-09-16T06:21:10.671Z,998.01
2018-09-16T06:22:10.670Z,997.98
2018-09-16T06:23:10.679Z,997.98
2018-09-16T06:24:10.668Z,998
2018-09-16T06:25:10.747Z,998
2018-09-16T06:26:10.661Z,998
2018-09-16T06:27:10.657Z,998
2018-09-16T06:28:10.660Z,998
2018-09-16T06:29:10.659Z,998
2018-09-16T06:30:10.712Z,998.02
2018-09-16T06:31:10.654Z,998.02
2018-09-16T06:32:10.662Z,997.99
2018-09-16T06:33:10.645Z,998.01
2018-09-16T06:34:10.640Z,998.03
2018-09-16T06:35:10.666Z,998.06
2018-09-16T06:36:11.687Z,998.05
2018-09-16T06:37:10.642Z,998.02
2018-09-16T06:38:10.631Z,998.02
2018-09-16T06:39:10.631Z,998.03
2018-09-16T06:40:10.631Z,998.03
2018-09-16T06:41:10.695Z,998.04
2018-09-16T06:42:10.625Z,998.07
2018-09-16T06:43:10.624Z,998.04
2018-09-16T06:44:10.634Z,998.01
2018-09-16T06:45:10.621Z,998.01
2018-09-16T06:46:10.619Z,997.98
2018-09-16T06:47:10.618Z,997.92
2018-09-16T06:48:10.619Z,997.94
2018-09-16T06:49:10.617Z,997.89
2018-09-16T06:50:10.619Z,997.85
2018-09-16T06:51:10.619Z,997.85
2018-09-16T06:52:10.620Z,997.88
2018-09-16T06:53:10.625Z,997.81
2018-09-16T06:54:10.622Z,997.82
2018-09-16T06:55:10.668Z,997.75
2018-09-16T06:56:10.626Z,997.78
2018-09-16T06:57:10.623Z,997.79
2018-09-16T06:58:10.651Z,997.82
2018-09-16T06:59:10.632Z,997.81
2018-09-16T07:00:10.636Z,997.78
2018-09-16T07:01:10.629Z,997.78
2018-09-16T07:02:10.632Z,997.85
2018-09-16T07:03:10.632Z,997.77
2018-09-16T07:04:10.634Z,997.79
2018-09-16T07:05:10.739Z,997.81
2018-09-16T07:06:10.642Z,997.81
2018-09-16T07:07:10.637Z,997.82
2018-09-16T07:08:10.693Z,997.85
2018-09-16T07:09:10.647Z,997.86
2018-09-16T07:10:10.646Z,997.89
2018-09-16T07:11:10.645Z,997.88
2018-09-16T07:12:10.647Z,997.89
2018-09-16T07:13:10.650Z,997.95
2018-09-16T07:14:10.652Z,997.92
2018-09-16T07:15:10.656Z,997.91
2018-09-16T07:16:10.657Z,997.95
2018-09-16T07:17:10.662Z,997.91
2018-09-16T07:18:10.674Z,997.98
2018-09-16T07:19:10.668Z,997.98
2018-09-16T07:20:10.750Z,997.95
2018-09-16T07:21:10.689Z,997.98
2018-09-16T07:22:10.686Z,997.92
2018-09-16T07:23:10.686Z,997.94
2018-09-16T07:24:10.692Z,997.93
2018-09-16T07:25:10.694Z,997.91
2018-09-16T07:26:10.699Z,997.88
2018-09-16T07:27:10.735Z,997.9
2018-09-16T07:28:10.710Z,997.85
2018-09-16T07:29:10.711Z,997.82
2018-09-16T07:30:10.718Z,997.82
2018-09-16T07:31:10.724Z,997.84
2018-09-16T07:32:10.730Z,997.82
2018-09-16T07:33:10.734Z,997.77
2018-09-16T07:34:10.793Z,997.79
2018-09-16T07:35:10.744Z,997.79
2018-09-16T07:36:10.749Z,997.8
2018-09-16T07:37:10.751Z,997.75
2018-09-16T07:38:10.757Z,997.74
2018-09-16T07:39:10.766Z,997.75
2018-09-16T07:40:10.767Z,997.73
2018-09-16T07:41:10.774Z,997.8
2018-09-16T07:42:10.779Z,997.8
2018-09-16T07:43:10.788Z,997.79
2018-09-16T07:44:10.789Z,997.78
2018-09-16T07:45:10.795Z,997.79
2018-09-16T07:46:10.802Z,997.83
2018-09-16T07:47:10.810Z,997.75
2018-09-16T07:48:10.811Z,997.77
2018-09-16T07:49:10.820Z,997.81
2018-09-16T07:50:10.831Z,997.76
2018-09-16T07:51:10.832Z,997.78
2018-09-16T07:52:10.834Z,997.73
2018-09-16T07:53:10.890Z,997.81
2018-09-16T07:54:10.850Z,997.77
2018-09-16T07:55:10.881Z,997.81
2018-09-16T07:56:10.857Z,997.84
2018-09-16T07:57:10.862Z,997.86
2018-09-16T07:58:10.867Z,997.84
2018-09-16T07:59:10.871Z,997.83
2018-09-16T08:00:10.876Z,997.8
2018-09-16T08:01:10.881Z,997.77
2018-09-16T08:02:10.887Z,997.78
2018-09-16T08:03:10.896Z,997.79
2018-09-16T08:04:10.902Z,997.78
2018-09-16T08:05:10.939Z,997.77
2018-09-16T08:06:11.031Z,997.78
2018-09-16T08:07:10.920Z,997.82
2018-09-16T08:08:10.924Z,997.8
2018-09-16T08:09:10.925Z,997.78
2018-09-16T08:10:11.004Z,997.79
2018-09-16T08:11:10.939Z,997.75
2018-09-16T08:12:10.949Z,997.8
2018-09-16T08:13:10.949Z,997.82
2018-09-16T08:14:10.955Z,997.75
2018-09-16T08:15:10.958Z,997.81
2018-09-16T08:16:10.962Z,997.77
2018-09-16T08:17:10.965Z,997.8
2018-09-16T08:18:10.979Z,997.83
2018-09-16T08:19:10.980Z,997.85
2018-09-16T08:20:10.982Z,997.84
2018-09-16T08:21:10.996Z,997.81
2018-09-16T08:22:11.008Z,997.82
2018-09-16T08:23:11.006Z,997.83
2018-09-16T08:24:11.003Z,997.88
2018-09-16T08:25:11.015Z,997.89
2018-09-16T08:26:11.012Z,997.86
2018-09-16T08:27:11.016Z,997.87
2018-09-16T08:28:11.020Z,997.85
2018-09-16T08:29:11.023Z,997.82
2018-09-16T08:30:11.031Z,997.78
2018-09-16T08:31:11.038Z,997.74
2018-09-16T08:32:11.034Z,997.75
2018-09-16T08:33:11.042Z,997.77
2018-09-16T08:34:11.065Z,997.74
2018-09-16T08:35:11.045Z,997.71
2018-09-16T08:36:11.049Z,997.71
2018-09-16T08:37:11.050Z,997.67
2018-09-16T08:38:11.049Z,997.66
2018-09-16T08:39:11.054Z,997.66
2018-09-16T08:40:11.055Z,997.64
2018-09-16T08:41:11.058Z,997.64
2018-09-16T08:42:11.057Z,997.62
2018-09-16T08:43:11.065Z,997.63
2018-09-16T08:44:11.067Z,997.62
2018-09-16T08:45:11.069Z,997.65
2018-09-16T08:46:11.067Z,997.66
2018-09-16T08:47:11.071Z,997.63
2018-09-16T08:48:11.072Z,997.69
2018-09-16T08:49:11.072Z,997.62
2018-09-16T08:50:11.089Z,997.7
2018-09-16T08:51:11.076Z,997.69
2018-09-16T08:52:11.119Z,997.68
2018-09-16T08:53:11.079Z,997.66
2018-09-16T08:54:11.080Z,997.66
2018-09-16T08:55:11.083Z,997.64
2018-09-16T08:56:11.085Z,997.69
2018-09-16T08:57:11.095Z,997.65
2018-09-16T08:58:11.099Z,997.61
2018-09-16T08:59:11.091Z,997.63
2018-09-16T09:00:11.094Z,997.62
2018-09-16T09:01:11.092Z,997.62
2018-09-16T09:02:11.098Z,997.55
2018-09-16T09:03:11.098Z,997.59
2018-09-16T09:04:11.123Z,997.57
2018-09-16T09:05:11.099Z,997.55
2018-09-16T09:06:11.113Z,997.57
2018-09-16T09:07:11.105Z,997.53
2018-09-16T09:08:11.104Z,997.52
2018-09-16T09:09:11.105Z,997.56
2018-09-16T09:10:11.109Z,997.5
2018-09-16T09:11:11.108Z,997.51
2018-09-16T09:12:11.112Z,997.52
2018-09-16T09:13:11.133Z,997.44
2018-09-16T09:14:11.140Z,997.46
2018-09-16T09:15:11.117Z,997.45
2018-09-16T09:16:11.118Z,997.46
2018-09-16T09:17:11.120Z,997.39
2018-09-16T09:18:11.122Z,997.42
2018-09-16T09:19:11.127Z,997.4
2018-09-16T09:20:11.133Z,997.36
2018-09-16T09:21:11.128Z,997.36
2018-09-16T09:22:11.132Z,997.34
2018-09-16T09:23:11.159Z,997.35
2018-09-16T09:24:11.137Z,997.37
2018-09-16T09:25:11.138Z,997.33
2018-09-16T09:26:11.138Z,997.33
2018-09-16T09:27:11.139Z,997.34
2018-09-16T09:28:11.143Z,997.35
2018-09-16T09:29:11.216Z,997.33
2018-09-16T09:30:11.155Z,997.33
2018-09-16T09:31:11.149Z,997.3
2018-09-16T09:32:11.150Z,997.29
2018-09-16T09:33:11.177Z,997.3
2018-09-16T09:34:11.179Z,997.33
2018-09-16T09:35:11.160Z,997.3
2018-09-16T09:36:11.162Z,997.27
2018-09-16T09:37:12.112Z,997.27
2018-09-16T09:38:11.163Z,997.27
2018-09-16T09:39:11.172Z,997.24
2018-09-16T09:40:11.335Z,997.24
2018-09-16T09:41:11.173Z,997.15
2018-09-16T09:42:11.176Z,997.15
2018-09-16T09:43:11.175Z,997.14
2018-09-16T09:44:11.175Z,997.11
2018-09-16T09:45:11.203Z,997.11
2018-09-16T09:46:11.179Z,997.1
2018-09-16T09:47:11.184Z,997.11
2018-09-16T09:48:11.186Z,997.09
2018-09-16T09:49:11.208Z,997.05
2018-09-16T09:50:11.192Z,997.06
2018-09-16T09:51:11.195Z,997.01
2018-09-16T09:52:11.201Z,997.01
2018-09-16T09:53:11.201Z,997.04
2018-09-16T09:54:11.214Z,996.99
2018-09-16T09:55:11.207Z,996.99
2018-09-16T09:56:11.208Z,996.97
2018-09-16T09:57:11.216Z,996.95
2018-09-16T09:58:11.216Z,996.96
2018-09-16T09:59:11.356Z,996.86
2018-09-16T10:00:11.218Z,996.86
2018-09-16T10:01:11.231Z,996.87
2018-09-16T10:02:11.221Z,996.86
2018-09-16T10:03:11.228Z,996.88
2018-09-16T10:04:11.227Z,996.81
2018-09-16T10:05:11.230Z,996.84
2018-09-16T10:06:11.290Z,996.82
2018-09-16T10:07:11.246Z,996.82
2018-09-16T10:08:11.240Z,996.78
2018-09-16T10:09:11.256Z,996.79
2018-09-16T10:10:11.246Z,996.77
2018-09-16T10:11:11.270Z,996.76
2018-09-16T10:12:11.255Z,996.74
2018-09-16T10:13:11.259Z,996.71
2018-09-16T10:14:11.254Z,996.73
2018-09-16T10:15:11.259Z,996.7
2018-09-16T10:16:11.265Z,996.71
2018-09-16T10:17:11.263Z,996.67
2018-09-16T10:18:11.279Z,996.67
2018-09-16T10:19:11.269Z,996.63
2018-09-16T10:20:11.268Z,996.62
2018-09-16T10:21:11.270Z,996.6
2018-09-16T10:22:11.280Z,996.6
2018-09-16T10:23:11.280Z,996.6
2018-09-16T10:24:11.341Z,996.58
2018-09-16T10:25:11.287Z,996.56
2018-09-16T10:26:11.290Z,996.53
2018-09-16T10:27:11.293Z,996.53
2018-09-16T10:28:11.295Z,996.52
2018-09-16T10:29:11.303Z,996.47
2018-09-16T10:30:11.332Z,996.47
2018-09-16T10:31:11.323Z,996.48
2018-09-16T10:32:11.308Z,996.44
2018-09-16T10:33:11.313Z,996.4
2018-09-16T10:34:11.318Z,996.42
2018-09-16T10:35:11.318Z,996.36
2018-09-16T10:36:11.331Z,996.36
2018-09-16T10:37:11.322Z,996.35
2018-09-16T10:38:11.328Z,996.31
2018-09-16T10:39:11.328Z,996.29
2018-09-16T10:40:11.333Z,996.29
2018-09-16T10:41:11.342Z,996.27
2018-09-16T10:42:11.337Z,996.24
2018-09-16T10:43:11.337Z,996.28
2018-09-16T10:44:11.344Z,996.25
2018-09-16T10:45:11.344Z,996.19
2018-09-16T10:46:11.351Z,996.2
2018-09-16T10:47:11.362Z,996.18
2018-09-16T10:48:11.380Z,996.22
2018-09-16T10:49:11.355Z,996.16
2018-09-16T10:50:11.361Z,996.16
2018-09-16T10:51:11.368Z,996.2
2018-09-16T10:52:11.379Z,996.21
2018-09-16T10:53:11.376Z,996.18
2018-09-16T10:54:11.373Z,996.1
2018-09-16T10:55:11.384Z,996.09
2018-09-16T10:56:11.386Z,996.13
2018-09-16T10:57:11.382Z,996.09
2018-09-16T10:58:11.384Z,996.07
2018-09-16T10:59:11.384Z,996.06
2018-09-16T11:00:11.386Z,996.09
2018-09-16T11:01:11.392Z,996.06
2018-09-16T11:02:11.400Z,996.06
2018-09-16T11:03:11.397Z,996.05
2018-09-16T11:04:11.402Z,996.04
2018-09-16T11:05:11.404Z,996.03
2018-09-16T11:06:11.407Z,996.02
2018-09-16T11:07:11.410Z,995.99
2018-09-16T11:08:11.623Z,995.99
2018-09-16T11:09:11.418Z,995.95
2018-09-16T11:10:11.421Z,995.98
2018-09-16T11:11:11.424Z,995.96
2018-09-16T11:12:11.432Z,995.95
2018-09-16T11:13:11.434Z,995.96
2018-09-16T11:14:11.433Z,995.98
2018-09-16T11:15:11.434Z,995.98
2018-09-16T11:16:11.438Z,995.99
2018-09-16T11:17:11.448Z,995.96
2018-09-16T11:18:11.448Z,996.02
2018-09-16T11:19:11.456Z,996.02
2018-09-16T11:20:11.454Z,996.02
2018-09-16T11:21:11.456Z,996.02
2018-09-16T11:22:11.543Z,995.97
2018-09-16T11:23:11.471Z,995.97
2018-09-16T11:24:11.468Z,995.99
2018-09-16T11:25:11.471Z,995.97
2018-09-16T11:26:11.480Z,995.97
2018-09-16T11:27:11.477Z,995.99
2018-09-16T11:28:11.484Z,995.95
2018-09-16T11:29:11.487Z,995.97
2018-09-16T11:30:11.760Z,995.97
2018-09-16T11:31:11.498Z,995.91
2018-09-16T11:32:11.499Z,995.98
2018-09-16T11:33:11.499Z,995.92
2018-09-16T11:34:11.501Z,995.91
2018-09-16T11:35:11.504Z,995.93
2018-09-16T11:36:11.508Z,995.93
2018-09-16T11:37:11.511Z,995.86
2018-09-16T11:38:11.822Z,995.88
2018-09-16T11:39:11.519Z,995.86
2018-09-16T11:40:11.524Z,995.82
2018-09-16T11:41:11.529Z,995.73
2018-09-16T11:42:11.530Z,995.75
2018-09-16T11:43:11.535Z,995.75
2018-09-16T11:44:11.536Z,995.75
2018-09-16T11:45:11.539Z,995.7
2018-09-16T11:46:11.553Z,995.73
2018-09-16T11:47:11.548Z,995.72
2018-09-16T11:48:11.557Z,995.69
2018-09-16T11:49:11.555Z,995.66
2018-09-16T11:50:11.563Z,995.65
2018-09-16T11:51:11.561Z,995.62
2018-09-16T11:52:11.584Z,995.6
2018-09-16T11:53:11.568Z,995.62
2018-09-16T11:54:11.573Z,995.6
2018-09-16T11:55:11.590Z,995.58
2018-09-16T11:56:11.580Z,995.6
2018-09-16T11:57:11.582Z,995.62
2018-09-16T11:58:11.584Z,995.6
2018-09-16T11:59:11.591Z,995.59
2018-09-16T12:00:11.597Z,995.62
2018-09-16T12:01:11.599Z,995.62
2018-09-16T12:02:11.626Z,995.62
2018-09-16T12:03:11.606Z,995.6
2018-09-16T12:04:11.612Z,995.58
2018-09-16T12:05:11.656Z,995.51
2018-09-16T12:06:11.615Z,995.51
2018-09-16T12:07:11.638Z,995.51
2018-09-16T12:08:11.622Z,995.49
2018-09-16T12:09:11.637Z,995.45
2018-09-16T12:10:11.637Z,995.47
2018-09-16T12:11:11.656Z,995.46
2018-09-16T12:12:11.639Z,995.45
2018-09-16T12:13:11.647Z,995.43
2018-09-16T12:14:11.666Z,995.44
2018-09-16T12:15:11.648Z,995.41
2018-09-16T12:16:11.702Z,995.42
2018-09-16T12:17:11.670Z,995.39
2018-09-16T12:18:11.662Z,995.38
2018-09-16T12:19:11.666Z,995.4
2018-09-16T12:20:11.841Z,995.35
2018-09-16T12:21:11.675Z,995.32
2018-09-16T12:22:11.680Z,995.35
2018-09-16T12:23:11.679Z,995.37
2018-09-16T12:24:11.693Z,995.33
2018-09-16T12:25:11.688Z,995.35
2018-09-16T12:26:11.698Z,995.3
2018-09-16T12:27:11.707Z,995.28
2018-09-16T12:28:11.712Z,995.3
2018-09-16T12:29:11.710Z,995.27
2018-09-16T12:30:11.711Z,995.26
2018-09-16T12:31:11.714Z,995.24